createdAt,value
2019-03-01T00:00:14.812Z,97184.45
2019-03-01T00:02:44.297Z,97182.95
2019-03-01T00:06:13.410Z,97188.92
2019-03-01T00:09:39.106Z,97189.75
2019-03-01T00:12:23.289Z,97191.53
2019-03-01T00:15:11.346Z,97188.68
2019-03-01T00:18:16.410Z,97191.89
2019-03-01T00:21:20.947Z,97192.38
2019-03-01T00:24:43.644Z,97186.03
2019-03-01T00:27:50.883Z,97180.89
2019-03-01T00:31:16.495Z,97168.73
2019-03-01T00:34:28.880Z,97167.30
2019-03-01T00:37:36.827Z,97160.96
2019-03-01T00:40:30.438Z,97168.48
2019-03-01T00:43:32.230Z,97157.26
2019-03-01T00:46:01.707Z,97165.33
2019-03-01T00:48:31.192Z,97164.02
2019-03-01T00:51:00.715Z,97160.68
2019-03-01T00:53:30.295Z,97164.41
2019-03-01T00:55:59.786Z,97157.75
2019-03-01T00:58:29.270Z,97154.52
2019-03-01T01:00:58.784Z,97155.23
2019-03-01T01:03:28.286Z,97147.23
2019-03-01T01:05:57.781Z,97142.00
2019-03-01T01:08:27.349Z,97132.92
2019-03-01T01:10:56.925Z,97128.37
2019-03-01T01:13:26.413Z,97117.64
2019-03-01T01:15:55.967Z,97118.95
2019-03-01T01:18:25.459Z,97131.38
2019-03-01T01:20:54.987Z,97126.42
2019-03-01T01:23:24.467Z,97122.42
2019-03-01T01:25:54.016Z,97108.98
2019-03-01T01:28:23.526Z,97099.66
2019-03-01T01:30:53.027Z,97095.13
2019-03-01T01:33:22.515Z,97084.97
2019-03-01T01:35:52.018Z,97082.64
2019-03-01T01:38:21.489Z,97077.41
2019-03-01T01:40:50.994Z,97071.20
2019-03-01T01:43:20.464Z,97081.55
2019-03-01T01:45:51.729Z,97082.74
2019-03-01T01:48:21.300Z,97080.69
2019-03-01T01:50:50.850Z,97064.52
2019-03-01T01:53:20.429Z,97069.63
2019-03-01T01:55:49.867Z,97074.86
2019-03-01T01:58:19.343Z,97079.63
2019-03-01T02:00:48.907Z,97074.17
2019-03-01T02:03:18.412Z,97082.80
2019-03-01T02:05:47.985Z,97085.78
2019-03-01T02:08:17.558Z,97087.60
2019-03-01T02:10:47.144Z,97085.67
2019-03-01T02:13:16.696Z,97074.16
2019-03-01T02:15:46.371Z,97069.38
2019-03-01T02:18:15.838Z,97074.53
2019-03-01T02:20:45.316Z,97062.59
2019-03-01T02:23:14.804Z,97067.20
2019-03-01T02:25:44.273Z,97064.72
2019-03-01T02:28:13.778Z,97061.78
2019-03-01T02:30:43.349Z,97069.58
2019-03-01T02:33:13.162Z,97062.12
2019-03-01T02:35:42.648Z,97070.66
2019-03-01T02:38:12.133Z,97071.27
2019-03-01T02:40:41.614Z,97067.27
2019-03-01T02:43:11.174Z,97063.57
2019-03-01T02:45:40.708Z,97060.11
2019-03-01T02:48:10.192Z,97058.33
2019-03-01T02:50:39.760Z,97059.40
2019-03-01T02:53:09.251Z,97054.97
2019-03-01T02:55:38.719Z,97053.99
2019-03-01T02:58:08.256Z,97051.35
2019-03-01T03:00:37.825Z,97046.09
2019-03-01T03:03:07.370Z,97037.27
2019-03-01T03:05:50.502Z,97034.16
2019-03-01T03:08:19.975Z,97034.02
2019-03-01T03:10:49.529Z,97029.27
2019-03-01T03:13:18.997Z,97026.61
2019-03-01T03:15:50.056Z,97023.53
2019-03-01T03:18:19.572Z,97024.82
2019-03-01T03:20:49.047Z,97019.92
2019-03-01T03:23:18.602Z,97020.51
2019-03-01T03:25:48.105Z,97017.50
2019-03-01T03:28:17.636Z,97018.17
2019-03-01T03:30:47.102Z,97021.14
2019-03-01T03:33:16.587Z,97025.67
2019-03-01T03:35:46.063Z,97023.05
2019-03-01T03:38:15.539Z,97031.05
2019-03-01T03:40:45.022Z,97033.67
2019-03-01T03:43:14.499Z,97025.44
2019-03-01T03:45:44.050Z,97022.78
2019-03-01T03:48:13.535Z,97018.27
2019-03-01T03:50:43.026Z,97022.50
2019-03-01T03:53:12.559Z,97024.67
2019-03-01T03:55:42.093Z,97016.31
2019-03-01T03:58:11.593Z,97006.77
2019-03-01T04:00:41.229Z,97008.48
2019-03-01T04:03:10.722Z,97000.45
2019-03-01T04:05:40.167Z,96994.39
2019-03-01T04:08:09.647Z,96979.84
2019-03-01T04:10:39.187Z,96983.42
2019-03-01T04:13:08.651Z,96969.63
2019-03-01T04:15:38.108Z,96976.67
2019-03-01T04:18:07.655Z,96968.49
2019-03-01T04:20:37.124Z,96971.00
2019-03-01T04:23:06.660Z,96965.67
2019-03-01T04:25:36.136Z,96967.89
2019-03-01T04:28:05.695Z,96967.09
2019-03-01T04:30:35.147Z,96962.66
2019-03-01T04:33:04.684Z,96959.80
2019-03-01T04:35:34.146Z,96965.28
2019-03-01T04:38:03.645Z,96966.01
2019-03-01T04:40:33.109Z,96954.50
2019-03-01T04:43:02.586Z,96958.68
2019-03-01T04:45:32.131Z,96953.67
2019-03-01T04:48:01.596Z,96950.25
2019-03-01T04:50:31.082Z,96946.77
2019-03-01T04:53:00.629Z,96938.87
2019-03-01T04:55:30.083Z,96943.69
2019-03-01T04:57:59.599Z,96938.44
2019-03-01T05:00:29.065Z,96935.99
2019-03-01T05:02:58.638Z,96930.80
2019-03-01T05:05:28.118Z,96941.91
2019-03-01T05:07:57.670Z,96936.06
2019-03-01T05:10:27.143Z,96929.26
2019-03-01T05:12:56.625Z,96931.09
2019-03-01T05:15:26.247Z,96928.97
2019-03-01T05:17:55.790Z,96932.52
2019-03-01T05:20:25.273Z,96925.41
2019-03-01T05:22:54.749Z,96921.81
2019-03-01T05:25:24.225Z,96920.30
2019-03-01T05:27:53.678Z,96919.05
2019-03-01T05:30:23.251Z,96918.28
2019-03-01T05:32:52.704Z,96917.38
2019-03-01T05:35:22.242Z,96914.45
2019-03-01T05:37:51.712Z,96914.34
2019-03-01T05:40:21.194Z,96908.44
2019-03-01T05:42:50.659Z,96911.64
2019-03-01T05:45:21.974Z,96905.43
2019-03-01T05:47:51.481Z,96905.80
2019-03-01T05:50:21.035Z,96914.64
2019-03-01T05:52:50.515Z,96902.70
2019-03-01T05:55:20.144Z,96911.85
2019-03-01T05:58:38.940Z,96908.99
2019-03-01T06:01:36.118Z,96908.52
2019-03-01T06:04:12.646Z,96896.30
2019-03-01T06:07:06.197Z,96894.92
2019-03-01T06:10:03.637Z,96899.93
2019-03-01T06:13:04.035Z,96897.92
2019-03-01T06:16:03.710Z,96893.05
2019-03-01T06:19:19.117Z,96905.87
2019-03-01T06:22:33.185Z,96903.87
2019-03-01T06:25:28.738Z,96908.27
2019-03-01T06:28:33.397Z,96910.67
2019-03-01T06:31:39.828Z,96908.86
2019-03-01T06:34:52.499Z,96905.98
2019-03-01T06:38:04.714Z,96895.62
2019-03-01T06:41:24.712Z,96898.36
2019-03-01T06:44:26.070Z,96899.18
2019-03-01T06:47:24.180Z,96890.72
2019-03-01T06:50:09.997Z,96889.99
2019-03-01T06:52:39.466Z,96893.36
2019-03-01T06:55:13.958Z,96898.97
2019-03-01T06:57:43.419Z,96890.36
2019-03-01T07:00:13.077Z,96906.00
2019-03-01T07:02:45.216Z,96902.91
2019-03-01T07:05:14.691Z,96897.52
2019-03-01T07:07:44.258Z,96898.00
2019-03-01T07:10:13.711Z,96900.63
2019-03-01T07:12:43.172Z,96901.56
2019-03-01T07:15:12.697Z,96904.09
2019-03-01T07:17:42.230Z,96897.30
2019-03-01T07:20:12.748Z,96899.44
2019-03-01T07:22:42.268Z,96891.56
2019-03-01T07:25:11.809Z,96894.09
2019-03-01T07:27:41.299Z,96893.95
2019-03-01T07:30:10.858Z,96894.20
2019-03-01T07:32:40.347Z,96887.15
2019-03-01T07:35:09.920Z,96884.74
2019-03-01T07:37:39.407Z,96885.82
2019-03-01T07:40:09.077Z,96885.48
2019-03-01T07:42:38.630Z,96881.67
2019-03-01T07:45:09.142Z,96886.67
2019-03-01T07:47:38.625Z,96884.74
2019-03-01T07:50:08.509Z,96878.18
2019-03-01T07:52:38.078Z,96889.05
2019-03-01T07:55:09.262Z,96883.43
2019-03-01T07:57:38.843Z,96883.59
2019-03-01T08:00:14.246Z,96882.05
2019-03-01T08:02:42.509Z,96881.45
2019-03-01T08:05:12.433Z,96885.41
2019-03-01T08:07:41.995Z,96877.26
2019-03-01T08:10:11.939Z,96874.75
2019-03-01T08:12:42.500Z,96874.88
2019-03-01T08:15:13.983Z,96877.51
2019-03-01T08:17:43.449Z,96881.41
2019-03-01T08:20:14.877Z,96877.94
2019-03-01T08:22:48.749Z,96878.67
2019-03-01T08:25:22.695Z,96876.09
2019-03-01T08:27:47.815Z,96867.55
2019-03-01T08:30:18.340Z,96864.62
2019-03-01T08:32:47.872Z,96867.20
2019-03-01T08:35:17.345Z,96876.03
2019-03-01T08:37:49.965Z,96872.22
2019-03-01T08:40:18.236Z,96874.50
2019-03-01T08:42:47.705Z,96879.16
2019-03-01T08:45:17.291Z,96880.94
2019-03-01T08:47:48.609Z,96877.50
2019-03-01T08:50:18.128Z,96880.72
2019-03-01T08:52:47.950Z,96874.53
2019-03-01T08:55:18.236Z,96873.09
2019-03-01T08:57:47.708Z,96876.20
2019-03-01T09:00:23.151Z,96880.14
2019-03-01T09:02:51.259Z,96872.47
2019-03-01T09:05:20.721Z,96881.55
2019-03-01T09:07:50.274Z,96876.00
2019-03-01T09:10:19.807Z,96876.09
2019-03-01T09:12:49.343Z,96873.73
2019-03-01T09:15:18.852Z,96873.02
2019-03-01T09:17:48.333Z,96880.41
2019-03-01T09:20:17.818Z,96881.84
2019-03-01T09:22:47.283Z,96876.50
2019-03-01T09:25:17.002Z,96885.27
2019-03-01T09:27:46.460Z,96882.56
2019-03-01T09:30:18.240Z,96888.73
2019-03-01T09:32:47.712Z,96894.91
2019-03-01T09:35:35.343Z,96879.31
2019-03-01T09:38:07.699Z,96886.16
2019-03-01T09:40:36.837Z,96883.93
2019-03-01T09:43:06.343Z,96895.42
2019-03-01T09:45:36.787Z,96884.36
2019-03-01T09:48:08.798Z,96885.95
2019-03-01T09:50:38.346Z,96879.61
2019-03-01T09:53:07.922Z,96880.36
2019-03-01T09:55:38.454Z,96870.23
2019-03-01T09:58:08.590Z,96873.83
2019-03-01T10:00:39.556Z,96875.52
2019-03-01T10:03:09.083Z,96865.25
2019-03-01T10:05:38.554Z,96864.74
2019-03-01T10:08:08.038Z,96873.88
2019-03-01T10:10:37.607Z,96875.67
2019-03-01T10:13:07.145Z,96871.19
2019-03-01T10:15:36.636Z,96873.95
2019-03-01T10:18:06.104Z,96872.81
2019-03-01T10:20:35.576Z,96863.97
2019-03-01T10:23:05.119Z,96871.96
2019-03-01T10:25:34.668Z,96870.30
2019-03-01T10:28:04.232Z,96881.45
2019-03-01T10:30:33.944Z,96879.52
2019-03-01T10:33:03.420Z,96883.07
2019-03-01T10:35:32.970Z,96879.03
2019-03-01T10:38:02.517Z,96878.30
2019-03-01T10:40:31.991Z,96879.98
2019-03-01T10:43:01.496Z,96878.04
2019-03-01T10:45:31.080Z,96881.59
2019-03-01T10:48:00.647Z,96876.92
2019-03-01T10:50:30.190Z,96884.73
2019-03-01T10:52:59.579Z,96874.64
2019-03-01T10:55:29.124Z,96878.30
2019-03-01T10:57:58.598Z,96877.75
2019-03-01T11:00:29.148Z,96875.38
2019-03-01T11:02:59.266Z,96871.98
2019-03-01T11:05:29.233Z,96870.57
2019-03-01T11:07:59.120Z,96868.55
2019-03-01T11:10:31.439Z,96871.41
2019-03-01T11:13:01.480Z,96871.60
2019-03-01T11:15:31.028Z,96874.74
2019-03-01T11:18:00.540Z,96870.09
2019-03-01T11:20:30.070Z,96869.20
2019-03-01T11:22:59.645Z,96873.84
2019-03-01T11:25:29.191Z,96868.62
2019-03-01T11:27:59.569Z,96879.08
2019-03-01T11:30:30.647Z,96876.66
2019-03-01T11:33:00.109Z,96874.45
2019-03-01T11:35:29.664Z,96873.72
2019-03-01T11:37:59.330Z,96874.77
2019-03-01T11:40:30.799Z,96882.73
2019-03-01T11:43:00.515Z,96874.03
2019-03-01T11:45:29.983Z,96879.03
2019-03-01T11:47:59.514Z,96869.67
2019-03-01T11:50:29.037Z,96881.69
2019-03-01T11:52:58.604Z,96876.20
2019-03-01T11:55:28.072Z,96879.28
2019-03-01T11:57:57.649Z,96871.31
2019-03-01T12:00:27.497Z,96875.89
2019-03-01T12:02:57.099Z,96877.81
2019-03-01T12:05:26.573Z,96880.72
2019-03-01T12:07:56.063Z,96883.84
2019-03-01T12:10:26.045Z,96880.88
2019-03-01T12:12:55.598Z,96880.22
2019-03-01T12:15:25.230Z,96883.27
2019-03-01T12:17:54.816Z,96878.02
2019-03-01T12:20:24.388Z,96873.81
2019-03-01T12:22:54.057Z,96877.11
2019-03-01T12:25:23.953Z,96871.98
2019-03-01T12:27:53.419Z,96869.14
2019-03-01T12:30:24.652Z,96870.31
2019-03-01T12:32:54.228Z,96868.61
2019-03-01T12:35:23.795Z,96865.72
2019-03-01T12:37:53.347Z,96866.50
2019-03-01T12:40:24.176Z,96866.60
2019-03-01T12:42:54.016Z,96873.22
2019-03-01T12:45:23.942Z,96860.67
2019-03-01T12:47:54.634Z,96863.81
2019-03-01T12:50:24.598Z,96857.79
2019-03-01T12:52:54.870Z,96865.76
2019-03-01T12:55:25.171Z,96869.00
2019-03-01T12:57:55.724Z,96870.92
2019-03-01T13:00:28.075Z,96860.29
2019-03-01T13:03:00.055Z,96869.05
2019-03-01T13:05:30.314Z,96853.59
2019-03-01T13:07:59.828Z,96866.98
2019-03-01T13:10:29.727Z,96868.81
2019-03-01T13:13:02.248Z,96865.45
2019-03-01T13:15:30.547Z,96865.45
2019-03-01T13:17:59.999Z,96868.55
2019-03-01T13:20:29.983Z,96874.77
2019-03-01T13:23:01.012Z,96872.19
2019-03-01T13:25:30.625Z,96871.08
2019-03-01T13:28:00.099Z,96868.46
2019-03-01T13:30:32.535Z,96866.16
2019-03-01T13:33:02.558Z,96867.63
2019-03-01T13:35:32.128Z,96870.92
2019-03-01T13:38:03.662Z,96869.73
2019-03-01T13:40:32.871Z,96868.20
2019-03-01T13:43:02.343Z,96863.20
2019-03-01T13:45:31.819Z,96865.92
2019-03-01T13:48:03.212Z,96858.40
2019-03-01T13:50:32.488Z,96866.75
2019-03-01T13:53:01.951Z,96866.33
2019-03-01T13:55:31.436Z,96864.96
2019-03-01T13:58:00.985Z,96852.66
2019-03-01T14:00:30.528Z,96846.48
2019-03-01T14:03:00.026Z,96856.57
2019-03-01T14:05:29.488Z,96859.68
2019-03-01T14:08:08.401Z,96855.25
2019-03-01T14:10:30.570Z,96850.61
2019-03-01T14:13:00.144Z,96867.87
2019-03-01T14:15:30.016Z,96867.13
2019-03-01T14:18:01.283Z,96881.23
2019-03-01T14:20:30.904Z,96868.19
2019-03-01T14:23:00.385Z,96863.70
2019-03-01T14:25:30.446Z,96863.38
2019-03-01T14:28:02.071Z,96867.11
2019-03-01T14:30:33.247Z,96876.80
2019-03-01T14:33:02.628Z,96885.95
2019-03-01T14:35:33.152Z,96889.63
2019-03-01T14:38:03.943Z,96887.70
2019-03-01T14:40:33.442Z,96890.45
2019-03-01T14:43:03.003Z,96886.67
2019-03-01T14:45:32.702Z,96895.62
2019-03-01T14:48:04.991Z,96888.55
2019-03-01T14:50:53.217Z,96893.98
2019-03-01T14:53:22.677Z,96891.00
2019-03-01T14:55:58.843Z,96893.60
2019-03-01T14:58:32.107Z,96898.77
2019-03-01T15:01:09.296Z,96910.09
2019-03-01T15:03:39.575Z,96911.09
2019-03-01T15:06:09.803Z,96907.36
2019-03-01T15:08:44.085Z,96911.63
2019-03-01T15:11:16.244Z,96903.98
2019-03-01T15:13:46.860Z,96916.23
2019-03-01T15:16:16.482Z,96902.47
2019-03-01T15:19:35.658Z,96912.88
2019-03-01T15:22:05.487Z,96919.55
2019-03-01T15:24:36.187Z,96915.56
2019-03-01T15:27:06.157Z,96918.78
2019-03-01T15:29:35.660Z,96917.02
2019-03-01T15:32:05.230Z,96916.66
2019-03-01T15:34:34.707Z,96911.59
2019-03-01T15:37:04.324Z,96909.99
2019-03-01T15:39:33.884Z,96919.55
2019-03-01T15:42:03.395Z,96915.39
2019-03-01T15:44:32.867Z,96918.19
2019-03-01T15:47:02.346Z,96914.99
2019-03-01T15:49:31.906Z,96924.13
2019-03-01T15:52:01.401Z,96922.98
2019-03-01T15:54:32.457Z,96930.20
2019-03-01T15:57:02.109Z,96937.61
2019-03-01T15:59:31.584Z,96941.70
2019-03-01T16:02:01.160Z,96941.06
2019-03-01T16:04:33.665Z,96938.63
2019-03-01T16:07:01.828Z,96934.95
2019-03-01T16:09:31.328Z,96940.81
2019-03-01T16:12:00.880Z,96947.98
2019-03-01T16:14:30.359Z,96946.44
2019-03-01T16:16:59.972Z,96948.37
2019-03-01T16:19:29.430Z,96952.22
2019-03-01T16:22:00.542Z,96961.21
2019-03-01T16:24:30.120Z,96955.03
2019-03-01T16:27:37.441Z,96957.53
2019-03-01T16:30:02.266Z,96962.08
2019-03-01T16:32:31.782Z,96963.38
2019-03-01T16:35:01.336Z,96961.58
2019-03-01T16:37:30.857Z,96967.80
2019-03-01T16:40:01.464Z,96965.41
2019-03-01T16:42:38.249Z,96964.83
2019-03-01T16:45:02.340Z,96971.12
2019-03-01T16:47:31.809Z,96983.65
2019-03-01T16:50:02.991Z,96989.49
2019-03-01T16:52:32.556Z,96982.93
2019-03-01T16:55:02.030Z,96990.43
2019-03-01T16:57:31.496Z,97001.30
2019-03-01T17:00:01.054Z,96998.08
2019-03-01T17:02:30.589Z,96996.30
2019-03-01T17:05:03.754Z,97000.83
2019-03-01T17:07:31.257Z,97006.01
2019-03-01T17:10:01.033Z,97003.41
2019-03-01T17:12:30.588Z,96999.50
2019-03-01T17:15:01.411Z,96997.09
2019-03-01T17:17:33.134Z,97006.41
2019-03-01T17:20:03.672Z,97006.52
2019-03-01T17:22:33.153Z,97019.95
2019-03-01T17:25:02.639Z,97015.67
2019-03-01T17:27:32.107Z,97027.39
2019-03-01T17:30:01.584Z,97024.98
2019-03-01T17:32:31.033Z,97034.25
2019-03-01T17:35:00.987Z,97034.82
2019-03-01T17:37:32.433Z,97039.41
2019-03-01T17:40:01.943Z,97041.08
2019-03-01T17:42:31.453Z,97044.33
2019-03-01T17:45:00.945Z,97048.60
2019-03-01T17:47:30.419Z,97040.73
2019-03-01T17:49:59.912Z,97039.88
2019-03-01T17:52:30.506Z,97046.09
2019-03-01T17:55:01.469Z,97044.42
2019-03-01T17:57:33.002Z,97045.17
2019-03-01T18:00:02.905Z,97050.81
2019-03-01T18:02:32.357Z,97050.98
2019-03-01T18:05:01.858Z,97053.68
2019-03-01T18:07:31.393Z,97059.20
2019-03-01T18:10:00.957Z,97061.23
2019-03-01T18:12:30.442Z,97070.73
2019-03-01T18:14:59.900Z,97065.86
2019-03-01T18:17:29.460Z,97068.73
2019-03-01T18:20:01.593Z,97074.89
2019-03-01T18:22:30.094Z,97077.88
2019-03-01T18:24:59.570Z,97073.33
2019-03-01T18:27:29.125Z,97081.02
2019-03-01T18:29:58.613Z,97083.33
2019-03-01T18:32:28.130Z,97083.20
2019-03-01T18:34:57.616Z,97082.45
2019-03-01T18:37:27.448Z,97083.53
2019-03-01T18:39:57.007Z,97089.55
2019-03-01T18:42:26.450Z,97099.08
2019-03-01T18:44:55.917Z,97098.56
2019-03-01T18:47:27.918Z,97096.05
2019-03-01T18:49:56.665Z,97103.55
2019-03-01T18:52:26.224Z,97110.32
2019-03-01T18:54:55.720Z,97107.52
2019-03-01T18:57:25.187Z,97113.99
2019-03-01T18:59:56.488Z,97117.98
2019-03-01T19:02:27.623Z,97127.89
2019-03-01T19:04:57.200Z,97121.45
2019-03-01T19:07:27.463Z,97132.55
2019-03-01T19:09:57.892Z,97130.70
2019-03-01T19:12:27.444Z,97126.87
2019-03-01T19:14:56.990Z,97131.52
2019-03-01T19:17:26.584Z,97124.83
2019-03-01T19:19:56.063Z,97129.34
2019-03-01T19:22:28.339Z,97130.51
2019-03-01T19:24:56.751Z,97133.05
2019-03-01T19:27:26.305Z,97135.95
2019-03-01T19:29:55.805Z,97128.80
2019-03-01T19:32:26.851Z,97126.09
2019-03-01T19:34:56.500Z,97125.05
2019-03-01T19:37:25.996Z,97129.80
2019-03-01T19:39:55.555Z,97130.36
2019-03-01T19:42:25.037Z,97134.06
2019-03-01T19:44:54.568Z,97120.42
2019-03-01T19:47:26.468Z,97131.26
2019-03-01T19:49:55.336Z,97137.80
2019-03-01T19:52:24.854Z,97134.25
2019-03-01T19:54:54.403Z,97142.14
2019-03-01T19:57:23.980Z,97145.86
2019-03-01T19:59:53.441Z,97151.70
2019-03-01T20:02:22.953Z,97145.92
2019-03-01T20:04:55.422Z,97147.77
2019-03-01T20:07:23.607Z,97149.92
2019-03-01T20:09:53.110Z,97150.84
2019-03-01T20:12:22.591Z,97159.64
2019-03-01T20:14:52.068Z,97158.37
2019-03-01T20:17:21.636Z,97158.95
2019-03-01T20:19:53.593Z,97155.77
2019-03-01T20:22:22.310Z,97161.67
2019-03-01T20:24:51.783Z,97170.33
2019-03-01T20:27:21.345Z,97164.88
2019-03-01T20:29:52.492Z,97175.35
2019-03-01T20:32:21.998Z,97176.35
2019-03-01T20:34:51.476Z,97173.47
2019-03-01T20:37:20.975Z,97177.09
2019-03-01T20:39:51.016Z,97178.94
2019-03-01T20:42:23.809Z,97184.45
2019-03-01T20:44:53.103Z,97187.98
2019-03-01T20:47:23.305Z,97201.27
2019-03-01T20:49:52.801Z,97207.55
2019-03-01T20:52:22.360Z,97203.25
2019-03-01T20:54:51.847Z,97209.23
2019-03-01T20:57:23.877Z,97212.50
2019-03-01T20:59:52.511Z,97211.01
2019-03-01T21:02:21.992Z,97212.27
2019-03-01T21:04:53.552Z,97217.61
2019-03-01T21:07:22.673Z,97218.68
2019-03-01T21:09:52.167Z,97216.91
2019-03-01T21:12:21.647Z,97223.12
2019-03-01T21:14:51.214Z,97226.17
2019-03-01T21:17:21.614Z,97224.41
2019-03-01T21:19:51.149Z,97217.38
2019-03-01T21:22:20.630Z,97220.08
2019-03-01T21:24:50.184Z,97218.88
2019-03-01T21:27:22.618Z,97223.27
2019-03-01T21:29:50.914Z,97220.83
2019-03-01T21:32:20.398Z,97227.66
2019-03-01T21:34:49.879Z,97224.78
2019-03-01T21:37:19.366Z,97227.11
2019-03-01T21:39:48.855Z,97224.95
2019-03-01T21:42:20.264Z,97226.16
2019-03-01T21:44:49.974Z,97221.05
2019-03-01T21:47:19.459Z,97233.73
2019-03-01T21:49:48.929Z,97231.80
2019-03-01T21:52:18.428Z,97227.69
2019-03-01T21:54:48.522Z,97225.52
2019-03-01T21:57:19.080Z,97221.90
2019-03-01T21:59:49.720Z,97223.29
2019-03-01T22:02:19.800Z,97219.78
2019-03-01T22:04:49.279Z,97225.45
2019-03-01T22:07:18.776Z,97231.33
2019-03-01T22:09:48.278Z,97231.14
2019-03-01T22:12:20.915Z,97235.44
2019-03-01T22:14:49.176Z,97231.98
2019-03-01T22:17:19.255Z,97233.87
2019-03-01T22:19:48.744Z,97236.89
2019-03-01T22:22:18.273Z,97243.55
2019-03-01T22:24:47.776Z,97247.64
2019-03-01T22:27:17.259Z,97241.64
2019-03-01T22:29:47.156Z,97246.42
2019-03-01T22:32:17.989Z,97246.45
2019-03-01T22:34:47.486Z,97247.23
2019-03-01T22:37:17.020Z,97253.16
2019-03-01T22:39:48.330Z,97257.08
2019-03-01T22:42:17.702Z,97253.47
2019-03-01T22:44:47.308Z,97251.05
2019-03-01T22:47:18.119Z,97256.39
2019-03-01T22:49:47.618Z,97262.53
2019-03-01T22:52:17.094Z,97258.45
2019-03-01T22:54:46.574Z,97259.04
2019-03-01T22:57:16.046Z,97266.65
2019-03-01T22:59:47.312Z,97263.02
2019-03-01T23:02:20.112Z,97266.70
2019-03-01T23:04:49.615Z,97272.20
2019-03-01T23:07:19.099Z,97268.12
2019-03-01T23:09:48.593Z,97273.72
2019-03-01T23:12:18.080Z,97273.69
2019-03-01T23:14:47.566Z,97272.25
2019-03-01T23:17:17.129Z,97279.58
2019-03-01T23:19:47.693Z,97279.91
2019-03-01T23:22:17.783Z,97286.48
2019-03-01T23:24:49.336Z,97276.38
2019-03-01T23:27:18.445Z,97273.33
2019-03-01T23:29:50.950Z,97283.19
2019-03-01T23:32:19.097Z,97282.89
2019-03-01T23:34:48.660Z,97283.32
2019-03-01T23:37:18.219Z,97283.52
2019-03-01T23:39:47.749Z,97286.34
2019-03-01T23:42:20.481Z,97282.16
2019-03-01T23:44:48.734Z,97275.77
2019-03-01T23:47:18.242Z,97289.77
2019-03-01T23:49:47.730Z,97288.34
2019-03-01T23:52:19.599Z,97290.11
2019-03-01T23:54:48.395Z,97279.86
2019-03-01T23:57:18.218Z,97275.60
2019-03-01T23:59:47.712Z,97279.76
